Nearby METAR Reports

 

KHOB - Hobbs, New Mexico, USA
Distance from station: S 40mi, 65km
Updated: Wed, 12-Dec-2018 3:50pm MST
Clear
Clear
 Wind from WSW
Wind: WSW 20 mph , 31 km/h, Gust: 28 mph , 44 km/h
Temperature: 64°F , 18°C
Dew Point: 39°F , 4°C
Humidity: 40%
Barometer: 29.81 inHg , 1009.5 hPa
Clouds: Clear
Visibility: 10 miles , 16 km
2018/12/12 22:50 KHOB 122250Z 24017G24KT 10SM CLR 18/04 A2981
KGNC - Seminole, Texas, USA
Distance from station: SE 55mi, 89km
Updated: Wed, 12-Dec-2018 4:15pm MST
Clear
Clear
 Wind from WSW
Wind: WSW 12 mph , 19 km/h
Temperature: 63°F , 17°C
Dew Point: 41°F , 5°C
Humidity: 45%
Barometer: 29.82 inHg , 1009.8 hPa
Clouds: Clear
Visibility: 10 miles , 16 km
2018/12/12 23:15 KGNC 122315Z AUTO 24010KT 10SM CLR 17/05 A2982 RMK AO2 T01670045
 
KROW - Roswell, New Mexico, USA
Distance from station: W 67mi, 108km
Updated: Wed, 12-Dec-2018 3:51pm MST
Clear
Clear
 Wind from SE
Wind: SE 7 mph , 11 km/h
Temperature: 55°F , 13°C
Dew Point: 41°F , 5°C
Humidity: 59%
Barometer: 29.77 inHg , 1008.1 hPa
Clouds: Clear
Visibility: 10 miles , 16 km
2018/12/12 22:51 KROW 122251Z 13006KT 10SM CLR 13/05 A2977 RMK AO2 SLP061 T01280050
KATS - Artesia, New Mexico, USA
Distance from station: WSW 71mi, 114km
Updated: Wed, 12-Dec-2018 4:35pm MST
Clear
Clear
 Wind from WSW
Wind: WSW 10 mph , 17 km/h
Temperature: 59°F , 15°C
Dew Point: 43°F , 6°C
Humidity: 55%
Barometer: 29.76 inHg , 1007.8 hPa
Clouds: Clear
Visibility: 10 miles , 16 km
2018/12/12 23:35 KATS 122335Z AUTO 24009KT 10SM CLR 15/06 A2976 RMK AO2
 
KCVS - Cannon AFB,Clovis, New Mexico, USA
Distance from station: 0 78mi, 125km
Updated: Wed, 12-Dec-2018 3:58pm MST
Clear
Clear
 Wind from WSW
Wind: WSW 22 mph , 35 km/h, Gust: 29 mph , 46 km/h
Temperature: 63°F , 17°C
Dew Point: 21°F , -6°C
Humidity: 20%
Barometer: 29.71 inHg , 1006.1 hPa
Clouds: Clear
Visibility: 10 miles , 16 km
2018/12/12 22:58 KCVS 122258Z AUTO 25019G25KT 10SM CLR 17/M06 A2971 RMK AO2 PK WND 26031/28 SLP043 T01741058 $
KE11 - Andrews, Texas, USA
Distance from station: SE 78mi, 126km
Updated: Wed, 12-Dec-2018 4:15pm MST
Clear
Clear
 Wind from WSW
Wind: WSW 7 mph , 11 km/h
Temperature: 63°F , 17°C
Dew Point: 45°F , 7°C
Humidity: 52%
Barometer: 29.80 inHg , 1009.1 hPa
Clouds: Clear
Visibility: 10 miles , 16 km
2018/12/12 23:15 KE11 122315Z AUTO 25006KT 10SM CLR 17/07 A2980 RMK AO2 T01710066
 
KCNM - Carlsbad, New Mexico, USA
Distance from station: SW 82mi, 132km
Updated: Wed, 12-Dec-2018 3:53pm MST
Clear
Clear
 Wind from W
Wind: W 12 mph , 19 km/h
Temperature: 63°F , 17°C
Dew Point: 39°F , 4°C
Humidity: 42%
Barometer: 29.80 inHg , 1009.1 hPa
Clouds: Clear
Visibility: 10 miles , 16 km
2018/12/12 22:53 KCNM 122253Z AUTO 26010KT 10SM CLR 17/04 A2980 RMK AO2 SLP065 T01720039 $
KCVN - Clovis Muni, New Mexico, USA
Distance from station: N 83mi, 133km
Updated: Wed, 12-Dec-2018 3:56pm MST
Clear
Clear
 Wind from WSW
Wind: WSW 22 mph , 35 km/h, Gust: 29 mph , 46 km/h
Temperature: 63°F , 17°C
Dew Point: 21°F , -6°C
Humidity: 20%
Barometer: 29.70 inHg , 1005.8 hPa
Clouds: Clear
Visibility: 10 miles , 16 km
2018/12/12 22:56 KCVN 122256Z AUTO 25019G25KT 10SM CLR 17/M06 A2970 RMK AO2 PK WND 25030/2159 SLP050 T01721061
 
KLBB - Lubbock, Texas, USA
Distance from station: ENE 92mi, 149km
Updated: Wed, 12-Dec-2018 3:53pm MST
Clear
Clear
 Wind from S
Wind: S 9 mph , 15 km/h
Temperature: 57°F , 14°C
Dew Point: 39°F , 4°C
Humidity: 51%
Barometer: 29.74 inHg , 1007.1 hPa
Clouds: Clear
Visibility: 10 miles , 16 km
2018/12/12 22:53 KLBB 122253Z 19008KT 10SM CLR 14/04 A2974 RMK AO2 SLP055 T01390039
KINK - Wink, Texas, USA
Distance from station: S 101mi, 163km
Updated: Wed, 12-Dec-2018 3:53pm MST
Clear
Clear
 Wind from WSW
Wind: WSW 12 mph , 19 km/h
Temperature: 68°F , 20°C
Dew Point: 46°F , 8°C
Humidity: 46%
Barometer: 29.79 inHg , 1008.8 hPa
Clouds: Clear
Visibility: 10 miles , 16 km
2018/12/12 22:53 KINK 122253Z AUTO 24010KT 10SM CLR 20/08 A2979 RMK AO2 SLP067 T02000078 TSNO
 
KMAF - Midland, Texas, USA
Distance from station: SE 111mi, 179km
Updated: Wed, 12-Dec-2018 3:53pm MST
Few Clouds
Few Clouds
 Wind from SW
Wind: SW 10 mph , 17 km/h
Temperature: 66°F , 19°C
Dew Point: 45°F , 7°C
Humidity: 46%
Barometer: 29.80 inHg , 1009.1 hPa
Clouds: Few Clouds
Visibility: 10 miles , 16 km
Cloud details: Few Clouds 11000 ft
2018/12/12 22:53 KMAF 122253Z AUTO 22009KT 10SM FEW110 19/07 A2980 RMK AO2 SLP067 T01890067
KSRR - Sierra B/Ruidoso, New Mexico, USA
Distance from station: W 127mi, 204km
Updated: Wed, 12-Dec-2018 1:35pm MST
NOT Current
Clear
Clear
 Wind from WNW
Wind: WNW 14 mph , 22 km/h, Gust: 23 mph , 37 km/h
Temperature: 54°F , 12°C
Dew Point: 21°F , -6°C
Humidity: 28%
Barometer: 29.93 inHg , 1013.5 hPa
Clouds: Clear
Visibility: 10 miles , 16 km
2018/12/12 20:35 KSRR 122035Z AUTO 30012G20KT 10SM CLR 12/M06 A2993 RMK AO2
 
KGDP - Guadalupe Pass, Texas, USA
Distance from station: SW 130mi, 209km
Updated: Thu, 22-Nov-2018 11:51am MST
NOT Current
Clear
Clear
 Wind from WSW
Wind: WSW 20 mph , 31 km/h
Temperature: 57°F , 14°C
Dew Point: 37°F , 3°C
Humidity: 48%
Barometer: 30.17 inHg , 1021.7 hPa
Clouds: Clear
Visibility: 10 miles , 16 km
2018/11/22 18:51 KGDP 221851Z AUTO 24017KT 10SM CLR 14/03 A3017 RMK AO2 SLP180 T01440033